Time;durP1;ratioP1;P1;durP2;ratioP2;P2;SDS_P1;SDS_P2;PMS_P1;PMS_P2;Temp;Humidity;BMP_temperature;BMP_pressure;BME280_temperature;BME280_humidity;BME280_pressure;Samples;Min_cycle;Max_cycle;Signal;HPM_P1;HPM_P2
2023/02/24 06:54:01;;;;;;;3.70;1.40;;;;;;;;;;10549839;28;20489;-81
2023/02/24 06:59:03;;;;;;;5.07;1.42;;;;;;;;;;10551935;28;20561;-81
2023/02/24 07:09:14;;;;;;;5.97;1.77;;;;;;;;;;10542793;28;20024;-81
2023/02/24 07:14:15;;;;;;;5.72;1.90;;;;;;;;;;10525485;28;20016;-81
2023/02/24 07:19:16;;;;;;;3.60;1.40;;;;;;;;;;10525744;28;20088;-81
2023/02/24 07:24:44;;;;;;;4.15;1.65;;;;;;;;;;10528056;28;20032;-81
2023/02/24 07:29:39;;;;;;;4.38;1.60;;;;;;;;;;10541716;28;20040;-81
2023/02/24 07:34:41;;;;;;;;;;;;;;;;;;10523612;28;20478;-81
2023/02/24 07:39:42;;;;;;;5.55;2.05;;;;;;;;;;10522808;28;19930;-81
2023/02/24 07:44:45;;;;;;;;;;;;;;;;;;10523395;28;20092;-81
2023/02/24 07:49:46;;;;;;;3.80;1.30;;;;;;;;;;10525542;28;19912;-81
2023/02/24 07:54:48;;;;;;;;;;;;;;;;;;10522783;28;20487;-81
2023/02/24 07:59:49;;;;;;;5.68;2.30;;;;;;;;;;10522475;28;19915;-81
2023/02/24 08:04:50;;;;;;;;;;;;;;;;;;10498207;28;20020;-79
2023/02/24 08:10:12;;;;;;;8.20;2.50;;;;;;;;;;10497417;28;20006;-79
2023/02/24 08:15:22;;;;;;;6.93;2.60;;;;;;;;;;10542311;28;20021;-79
2023/02/24 08:20:24;;;;;;;7.53;2.58;;;;;;;;;;10522568;28;20032;-78
2023/02/24 08:25:34;;;;;;;7.50;2.10;;;;;;;;;;10507130;28;20052;-78
2023/02/24 08:30:39;;;;;;;8.33;2.60;;;;;;;;;;10513814;28;20032;-77
2023/02/24 08:35:43;;;;;;;7.97;2.28;;;;;;;;;;10510165;28;20013;-77
2023/02/24 08:40:49;;;;;;;6.55;2.00;;;;;;;;;;10500963;28;20035;-78
2023/02/24 08:45:59;;;;;;;5.88;2.22;;;;;;;;;;10525509;28;20095;-78
2023/02/24 08:51:03;;;;;;;8.07;2.33;;;;;;;;;;10506398;28;20123;-78
2023/02/24 08:56:08;;;;;;;4.90;2.15;;;;;;;;;;10494187;28;20029;-77
2023/02/24 09:01:24;;;;;;;7.57;2.40;;;;;;;;;;10488374;28;20055;-78
2023/02/24 09:06:34;;;;;;;6.85;2.60;;;;;;;;;;10487463;28;20470;-79
2023/02/24 09:11:35;;;;;;;9.40;2.70;;;;;;;;;;10484181;28;20429;-77
2023/02/24 09:16:51;;;;;;;;;;;;;;;;;;10487700;28;20025;-79
2023/02/24 09:22:13;;;;;;;11.05;2.78;;;;;;;;;;10488135;28;19915;-79
2023/02/24 09:27:16;;;;;;;10.38;2.90;;;;;;;;;;10526162;28;20025;-77
2023/02/24 09:32:17;;;;;;;6.13;2.85;;;;;;;;;;10519797;28;20470;-78
2023/02/24 09:37:24;;;;;;;;;;;;;;;;;;10506226;28;20052;-80
2023/02/24 09:42:31;;;;;;;7.25;3.08;;;;;;;;;;10494650;28;19944;-79
2023/02/24 09:47:38;;;;;;;8.40;2.88;;;;;;;;;;10491295;28;20031;-80
2023/02/24 09:52:40;;;;;;;6.32;1.92;;;;;;;;;;10490939;28;20111;-79
2023/02/24 10:03:40;;;;;;;7.85;2.10;;;;;;;;;;10513205;28;20033;-77
2023/02/24 10:08:44;;;;;;;5.57;2.28;;;;;;;;;;10491956;28;20044;-79
2023/02/24 10:13:49;;;;;;;6.60;2.38;;;;;;;;;;10510844;28;20104;-80
2023/02/24 10:19:13;;;;;;;7.20;2.35;;;;;;;;;;10528369;28;20017;-80
2023/02/24 10:24:14;;;;;;;8.52;3.72;;;;;;;;;;10492730;28;20036;-80
2023/02/24 10:29:21;;;;;;;11.18;4.25;;;;;;;;;;10501576;28;20029;-80
2023/02/24 10:34:33;;;;;;;5.50;2.55;;;;;;;;;;10501336;28;20025;-79
2023/02/24 10:39:34;;;;;;;10.48;4.10;;;;;;;;;;10517623;28;20037;-80
2023/02/24 10:44:35;;;;;;;9.65;3.40;;;;;;;;;;10514404;28;20021;-81
2023/02/24 10:49:55;;;;;;;10.13;2.80;;;;;;;;;;10512479;28;20037;-80
2023/02/24 10:55:27;;;;;;;6.10;2.80;;;;;;;;;;10493612;28;20028;-79
2023/02/24 11:17:13;;;;;;;9.13;3.28;;;;;;;;;;10508192;28;20058;-80
2023/02/24 11:22:16;;;;;;;4.95;2.50;;;;;;;;;;10519418;28;20025;-79
2023/02/24 11:27:19;;;;;;;6.60;2.08;;;;;;;;;;10524045;28;20016;-79
2023/02/24 11:32:28;;;;;;;7.38;2.60;;;;;;;;;;10537168;28;20090;-79
2023/02/24 11:37:36;;;;;;;7.72;3.45;;;;;;;;;;10502248;28;20100;-79
2023/02/24 11:42:52;;;;;;;7.80;2.33;;;;;;;;;;10499910;28;20037;-80
2023/02/24 11:47:57;;;;;;;6.50;2.40;;;;;;;;;;10498306;28;20048;-79
2023/02/24 11:52:59;;;;;;;8.70;2.80;;;;;;;;;;10497125;28;20131;-80
2023/02/24 11:58:02;;;;;;;7.80;2.65;;;;;;;;;;10503139;28;20036;-80
2023/02/24 12:03:08;;;;;;;6.53;2.45;;;;;;;;;;10500330;28;20139;-80
2023/02/24 12:08:18;;;;;;;7.55;3.20;;;;;;;;;;10507027;28;20062;-79
2023/02/24 12:13:21;;;;;;;5.78;2.88;;;;;;;;;;10539998;28;20078;-79
2023/02/24 12:18:29;;;;;;;6.95;3.33;;;;;;;;;;10500466;28;20439;-80
2023/02/24 12:23:31;;;;;;;8.60;3.83;;;;;;;;;;10514676;28;20036;-80
2023/02/24 12:28:44;;;;;;;7.53;3.13;;;;;;;;;;10513065;28;20142;-81
2023/02/24 12:33:55;;;;;;;7.95;2.85;;;;;;;;;;10494589;28;20024;-80
2023/02/24 12:38:59;;;;;;;7.00;3.58;;;;;;;;;;10494289;28;20479;-80
2023/02/24 12:44:19;;;;;;;7.53;3.75;;;;;;;;;;10495252;28;20033;-81
2023/02/24 12:49:20;;;;;;;8.68;2.90;;;;;;;;;;10494049;28;20035;-81
2023/02/24 12:54:35;;;;;;;9.27;3.80;;;;;;;;;;10495658;28;20120;-81
2023/02/24 12:59:42;;;;;;;6.20;3.45;;;;;;;;;;10514013;28;20073;-81
2023/02/24 13:05:07;;;;;;;8.75;3.70;;;;;;;;;;10490614;28;20450;-80
2023/02/24 13:10:29;;;;;;;7.80;4.85;;;;;;;;;;10493786;28;20024;-81
2023/02/24 13:15:30;;;;;;;5.32;2.85;;;;;;;;;;10511659;28;20355;-81
2023/02/24 13:20:31;;;;;;;;;;;;;;;;;;10494420;28;20069;-81
2023/02/24 13:25:36;;;;;;;7.25;3.80;;;;;;;;;;10493495;28;20358;-82
2023/02/24 13:30:41;;;;;;;5.65;3.10;;;;;;;;;;10511405;28;20076;-83
2023/02/24 13:35:42;;;;;;;8.25;4.40;;;;;;;;;;10493535;28;20051;-80
2023/02/24 13:40:43;;;;;;;;;;;;;;;;;;10493525;28;20035;-81
2023/02/24 13:45:53;;;;;;;6.28;4.55;;;;;;;;;;10493909;28;19905;-79
2023/02/24 13:51:08;;;;;;;5.35;3.20;;;;;;;;;;10493987;28;20190;-79
2023/02/24 13:56:15;;;;;;;6.15;4.40;;;;;;;;;;10495533;28;20035;-79
2023/02/24 14:01:17;;;;;;;5.82;3.72;;;;;;;;;;10496417;28;20031;-78
2023/02/24 14:06:24;;;;;;;9.45;6.38;;;;;;;;;;10510215;28;20031;-79
2023/02/24 14:11:28;;;;;;;5.95;3.90;;;;;;;;;;10509544;28;20033;-79
2023/02/24 14:16:31;;;;;;;5.85;4.68;;;;;;;;;;10509278;28;20028;-79
2023/02/24 14:21:33;;;;;;;7.05;4.32;;;;;;;;;;10491270;28;20173;-79
2023/02/24 14:26:41;;;;;;;8.38;5.72;;;;;;;;;;10489944;28;20035;-78
2023/02/24 14:31:46;;;;;;;7.65;5.45;;;;;;;;;;10489818;28;20404;-81
2023/02/24 14:36:47;;;;;;;8.55;6.65;;;;;;;;;;10489892;28;20128;-81
2023/02/24 14:41:49;;;;;;;11.32;6.18;;;;;;;;;;10506553;28;20032;-79
2023/02/24 14:47:10;;;;;;;9.27;6.85;;;;;;;;;;10508030;28;20020;-79
2023/02/24 14:52:37;;;;;;;6.47;4.97;;;;;;;;;;10490334;28;20040;-80
2023/02/24 14:57:44;;;;;;;5.38;4.18;;;;;;;;;;10485494;28;20037;-80
2023/02/24 15:02:48;;;;;;;14.50;7.63;;;;;;;;;;10509851;28;20028;-81
2023/02/24 15:07:49;;;;;;;5.63;3.95;;;;;;;;;;10489201;28;20035;-79
2023/02/24 15:12:50;;;;;;;;;;;;;;;;;;10512008;28;20104;-81
2023/02/24 15:17:54;;;;;;;7.32;4.70;;;;;;;;;;10503243;28;19904;-82
2023/02/24 15:22:55;;;;;;;9.88;6.82;;;;;;;;;;10519686;28;20029;-81
2023/02/24 15:28:00;;;;;;;7.25;5.35;;;;;;;;;;10506450;28;20029;-82
2023/02/24 15:33:03;;;;;;;6.80;4.32;;;;;;;;;;10497068;28;20115;-80
2023/02/24 15:38:04;;;;;;;6.55;4.25;;;;;;;;;;10496988;28;20371;-80
2023/02/24 15:43:10;;;;;;;5.55;3.80;;;;;;;;;;10497108;28;20028;-79
2023/02/24 15:48:28;;;;;;;7.25;4.22;;;;;;;;;;10496811;28;20047;-81
2023/02/24 15:53:29;;;;;;;6.15;4.05;;;;;;;;;;10503909;28;20084;-81
2023/02/24 15:58:31;;;;;;;;;;;;;;;;;;10503542;28;20465;-80
2023/02/24 16:03:32;;;;;;;6.68;4.00;;;;;;;;;;10496148;28;19915;-81
2023/02/24 16:08:43;;;;;;;;;;;;;;;;;;10514325;28;20017;-81
2023/02/24 16:13:47;;;;;;;8.20;3.63;;;;;;;;;;10494983;28;19912;-80
2023/02/24 16:18:48;;;;;;;6.50;3.40;;;;;;;;;;10493800;28;20028;-80
2023/02/24 16:23:50;;;;;;;;;;;;;;;;;;10494131;28;20028;-80
2023/02/24 16:28:52;;;;;;;4.47;2.80;;;;;;;;;;10511279;28;19958;-80
2023/02/24 16:33:53;;;;;;;4.00;2.80;;;;;;;;;;10511843;28;20033;-80
2023/02/24 16:38:54;;;;;;;;;;;;;;;;;;10494393;28;20029;-79
2023/02/24 16:43:55;;;;;;;4.32;2.85;;;;;;;;;;10511139;28;19908;-79
2023/02/24 16:48:56;;;;;;;;;;;;;;;;;;10493545;28;20034;-79
2023/02/24 16:53:57;;;;;;;5.35;2.70;;;;;;;;;;10495183;28;19916;-79
2023/02/24 16:58:58;;;;;;;;;;;;;;;;;;10495277;28;20394;-79
2023/02/24 17:03:59;;;;;;;4.75;1.90;;;;;;;;;;10494659;28;19915;-80
2023/02/24 17:09:00;;;;;;;;;;;;;;;;;;10496536;28;20025;-78
2023/02/24 17:14:01;;;;;;;3.88;1.92;;;;;;;;;;10495627;28;19904;-80
2023/02/24 17:19:02;;;;;;;;;;;;;;;;;;10500224;28;20040;-81
2023/02/24 17:24:03;;;;;;;4.22;1.88;;;;;;;;;;10496510;28;19909;-84
2023/02/24 17:29:04;;;;;;;;;;;;;;;;;;10516111;28;20084;-84
2023/02/24 17:34:11;;;;;;;5.80;2.00;;;;;;;;;;10497259;28;19904;-84
2023/02/24 17:39:12;;;;;;;4.38;1.80;;;;;;;;;;10514765;28;20462;-84
2023/02/24 17:44:14;;;;;;;3.95;1.70;;;;;;;;;;10500078;28;20101;-82
2023/02/24 17:49:15;;;;;;;3.97;1.55;;;;;;;;;;10495238;28;20036;-82
2023/02/24 17:54:16;;;;;;;9.82;5.72;;;;;;;;;;10490341;28;20043;-82
2023/02/24 17:59:17;;;;;;;4.95;1.33;;;;;;;;;;10501199;28;20043;-81
2023/02/24 18:04:18;;;;;;;3.17;1.08;;;;;;;;;;10505760;28;20028;-82
2023/02/24 18:09:19;;;;;;;;;;;;;;;;;;10485591;28;20413;-82
2023/02/24 18:14:21;;;;;;;3.67;1.58;;;;;;;;;;10485048;28;19911;-81
2023/02/24 18:19:23;;;;;;;4.78;1.50;;;;;;;;;;10485255;28;20132;-82
2023/02/24 18:24:24;;;;;;;2.90;1.00;;;;;;;;;;10485133;28;20029;-82
2023/02/24 18:29:27;;;;;;;2.88;1.20;;;;;;;;;;10485017;28;20016;-82
2023/02/24 18:34:29;;;;;;;3.08;1.30;;;;;;;;;;10485126;28;20483;-82
2023/02/24 18:39:30;;;;;;;3.22;1.50;;;;;;;;;;10484734;28;20545;-82
2023/02/24 18:44:31;;;;;;;2.85;1.05;;;;;;;;;;10487567;28;20107;-82
2023/02/24 18:49:32;;;;;;;4.40;1.27;;;;;;;;;;10484259;28;20040;-82
2023/02/24 18:54:34;;;;;;;4.07;1.38;;;;;;;;;;10484122;28;20024;-82
2023/02/24 18:59:35;;;;;;;3.25;1.45;;;;;;;;;;10484696;28;20123;-82
2023/02/24 19:04:36;;;;;;;2.92;1.40;;;;;;;;;;10502257;28;20104;-82
2023/02/24 19:09:37;;;;;;;;;;;;;;;;;;10486102;28;20029;-83
2023/02/24 19:14:38;;;;;;;3.70;1.52;;;;;;;;;;10486792;28;19905;-82
2023/02/24 19:19:39;;;;;;;;;;;;;;;;;;10500894;28;20050;-82
2023/02/24 19:24:41;;;;;;;4.13;1.48;;;;;;;;;;10487851;28;19904;-82
2023/02/24 19:29:42;;;;;;;2.60;1.30;;;;;;;;;;10484160;28;20028;-82
2023/02/24 19:34:44;;;;;;;;;;;;;;;;;;10485802;28;20099;-82
2023/02/24 19:39:45;;;;;;;3.10;1.20;;;;;;;;;;10507286;28;19955;-82
2023/02/24 19:44:46;;;;;;;;;;;;;;;;;;10507763;28;20032;-83
2023/02/24 19:49:47;;;;;;;3.38;1.42;;;;;;;;;;10483492;28;19943;-82
2023/02/24 19:54:48;;;;;;;;;;;;;;;;;;10483631;28;20117;-82
2023/02/24 19:59:50;;;;;;;3.92;1.60;;;;;;;;;;10487070;28;19908;-82
2023/02/24 20:04:51;;;;;;;4.03;1.75;;;;;;;;;;10490423;28;20025;-82
2023/02/24 20:09:53;;;;;;;;;;;;;;;;;;10490456;28;20116;-82
2023/02/24 20:14:54;;;;;;;4.05;1.75;;;;;;;;;;10491449;28;20291;-82
